Time;durP1;ratioP1;P1;durP2;ratioP2;P2;SDS_P1;SDS_P2;PMS_P1;PMS_P2;Temp;Humidity;BMP_temperature;BMP_pressure;BME280_temperature;BME280_humidity;BME280_pressure;Samples;Min_cycle;Max_cycle;Signal;HPM_P1;HPM_P2
2023/05/31 00:02:16;;;;;;;10.07;4.60;;;;;;;13.59;63.92;98938.47;4815125;29;20045;-68
2023/05/31 00:04:41;;;;;;;7.25;4.68;;;;;;;13.54;64.15;98924.69;4804624;29;20061;-66
2023/05/31 00:07:08;;;;;;;10.23;5.15;;;;;;;13.52;64.35;98942.75;4811641;29;20124;-65
2023/05/31 00:10:24;;;;;;;9.55;4.80;;;;;;;13.45;64.54;98937.94;4823587;29;20103;-70
2023/05/31 00:13:16;;;;;;;14.18;5.78;;;;;;;13.51;64.96;98943.72;4823620;29;20049;-70
2023/05/31 00:15:41;;;;;;;14.88;5.95;;;;;;;13.37;64.65;98940.50;4837909;29;20049;-70
2023/05/31 00:18:07;;;;;;;9.65;5.38;;;;;;;13.35;64.63;98941.63;4822801;29;20049;-75
2023/05/31 00:20:32;;;;;;;9.75;5.10;;;;;;;13.32;65.25;98936.56;4826596;29;20050;-71
2023/05/31 00:22:58;;;;;;;9.57;4.85;;;;;;;13.29;65.03;98937.72;4825621;29;20428;-72
2023/05/31 00:25:23;;;;;;;11.35;4.70;;;;;;;13.28;65.12;98946.75;4826935;29;20045;-72
2023/05/31 00:27:49;;;;;;;5.13;4.03;;;;;;;13.26;65.23;98943.34;4826918;29;20053;-74
2023/05/31 00:30:15;;;;;;;8.85;4.78;;;;;;;13.26;65.22;98939.84;4827208;29;20068;-71
2023/05/31 00:32:45;;;;;;;5.65;4.32;;;;;;;13.25;65.24;98956.88;4827026;29;20069;-70
2023/05/31 00:35:12;;;;;;;10.38;5.00;;;;;;;13.23;65.19;98956.16;4826927;29;20060;-72
2023/05/31 00:37:37;;;;;;;11.02;5.80;;;;;;;13.20;65.24;98954.66;4821878;29;20061;-73
2023/05/31 00:40:05;;;;;;;12.45;6.25;;;;;;;13.16;65.29;98958.59;4819597;29;20049;-71
2023/05/31 00:42:31;;;;;;;9.73;4.70;;;;;;;13.13;65.51;98952.63;4815699;29;20599;-73
2023/05/31 00:44:59;;;;;;;9.88;4.65;;;;;;;13.08;65.40;98951.25;4826820;29;20412;-73
2023/05/31 00:47:28;;;;;;;8.20;4.65;;;;;;;13.04;65.45;98954.34;4807188;29;20061;-73
2023/05/31 00:50:01;;;;;;;7.68;4.10;;;;;;;13.01;65.54;98976.88;4806823;29;20049;-75
2023/05/31 00:52:56;;;;;;;6.93;3.95;;;;;;;13.06;65.59;98957.72;4826474;29;20053;-72
2023/05/31 00:55:22;;;;;;;7.68;4.25;;;;;;;12.93;65.21;98947.31;4822075;29;20046;-71
2023/05/31 00:57:48;;;;;;;7.82;4.20;;;;;;;12.91;65.39;98953.78;4820710;29;20053;-74
2023/05/31 01:03:08;;;;;;;11.65;4.07;;;;;;;12.85;66.17;98949.00;4815817;29;20056;-72
2023/05/31 01:05:35;;;;;;;6.10;4.30;;;;;;;12.79;66.21;98949.53;4828426;29;20398;-74
2023/05/31 01:08:02;;;;;;;8.30;4.00;;;;;;;12.74;66.25;98952.66;4828014;29;20045;-78
2023/05/31 01:10:31;;;;;;;10.18;4.72;;;;;;;12.72;66.34;98976.88;4826755;29;20549;-76
2023/05/31 01:13:06;;;;;;;13.50;4.43;;;;;;;12.71;66.81;98955.59;4827819;29;20072;-75
2023/05/31 01:15:35;;;;;;;7.22;4.40;;;;;;;12.68;66.75;98947.84;4827767;29;20053;-72
2023/05/31 01:18:32;;;;;;;7.80;5.00;;;;;;;12.71;67.18;98961.81;4822739;29;20062;-72
2023/05/31 01:21:03;;;;;;;10.27;5.18;;;;;;;12.66;66.88;98953.34;4807890;29;20050;-72
2023/05/31 01:23:33;;;;;;;7.45;4.57;;;;;;;12.65;66.88;98959.66;4808483;29;20060;-72
2023/05/31 01:26:30;;;;;;;6.80;4.60;;;;;;;12.70;67.20;98951.25;4807815;29;20050;-73
2023/05/31 01:29:01;;;;;;;14.93;5.13;;;;;;;12.65;67.10;98948.97;4808517;29;20061;-73
2023/05/31 01:31:30;;;;;;;8.73;4.05;;;;;;;12.62;67.07;98943.94;4824225;29;20045;-72
2023/05/31 01:33:55;;;;;;;9.07;5.22;;;;;;;12.64;67.12;98947.28;4811386;29;20161;-73
2023/05/31 01:36:23;;;;;;;5.80;3.97;;;;;;;12.66;67.29;98948.00;4811396;29;20065;-74
2023/05/31 01:38:48;;;;;;;11.65;4.32;;;;;;;12.69;67.14;98950.38;4827032;29;20509;-72
2023/05/31 01:41:15;;;;;;;8.05;4.43;;;;;;;12.72;67.33;98934.06;4811900;29;20045;-72
2023/05/31 01:43:43;;;;;;;6.15;3.63;;;;;;;12.75;67.40;98938.31;4826158;29;20402;-74
2023/05/31 01:46:10;;;;;;;7.00;4.32;;;;;;;12.80;66.74;98946.72;4826825;29;20052;-72
2023/05/31 01:48:37;;;;;;;12.20;4.22;;;;;;;12.83;67.02;98941.13;4826415;29;20060;-73
2023/05/31 01:51:08;;;;;;;12.05;5.25;;;;;;;12.89;66.87;98945.03;4825881;29;20056;-72
2023/05/31 01:54:01;;;;;;;9.35;4.60;;;;;;;12.98;67.12;98933.50;4827245;29;20052;-72
2023/05/31 01:56:28;;;;;;;14.20;4.05;;;;;;;12.90;66.63;98936.88;4837365;29;20021;-76
2023/05/31 01:58:56;;;;;;;7.13;4.63;;;;;;;12.90;66.96;98941.38;4838370;29;20056;-72
2023/05/31 02:01:23;;;;;;;7.03;4.10;;;;;;;12.92;66.80;98940.25;4820088;29;20068;-70
2023/05/31 02:03:51;;;;;;;5.95;3.90;;;;;;;12.93;66.90;98947.31;4815194;29;20053;-71
2023/05/31 02:06:20;;;;;;;5.07;3.80;;;;;;;13.01;66.90;98943.91;4818493;29;20049;-70
2023/05/31 02:08:47;;;;;;;7.10;3.67;;;;;;;13.12;66.78;98940.22;4822076;29;20053;-70
2023/05/31 02:11:14;;;;;;;6.85;3.67;;;;;;;13.22;66.34;98947.28;4835321;29;20045;-70
2023/05/31 02:13:39;;;;;;;5.97;3.97;;;;;;;13.34;66.15;98935.44;4816193;29;20042;-69
2023/05/31 02:16:05;;;;;;;7.10;4.38;;;;;;;13.40;66.04;98950.94;4818516;29;20041;-67
2023/05/31 02:18:32;;;;;;;9.20;4.47;;;;;;;13.48;65.48;98958.25;4842287;29;20041;-70
2023/05/31 02:21:03;;;;;;;8.32;4.90;;;;;;;13.54;65.15;98940.78;4851365;29;20049;-69
2023/05/31 02:23:29;;;;;;;9.65;4.05;;;;;;;13.61;65.15;98948.06;4845611;29;20049;-71
2023/05/31 02:25:55;;;;;;;8.10;4.45;;;;;;;13.71;65.32;98948.03;4827828;29;20049;-70
2023/05/31 02:28:20;;;;;;;6.22;4.10;;;;;;;13.84;64.96;98947.69;4839740;29;20038;-70
2023/05/31 02:31:00;;;;;;;8.68;4.22;;;;;;;14.06;65.15;98958.88;4850179;29;20033;-71
2023/05/31 02:33:27;;;;;;;5.35;4.40;;;;;;;14.20;64.59;98964.75;4840209;29;20049;-70
2023/05/31 02:36:01;;;;;;;7.07;4.30;;;;;;;14.43;64.16;98966.06;4847199;29;20043;-73
2023/05/31 02:38:36;;;;;;;4.40;3.85;;;;;;;14.61;63.86;98948.16;4848630;29;20045;-76
2023/05/31 02:41:01;;;;;;;10.18;4.60;;;;;;;14.66;63.50;98940.50;4847770;29;20045;-70
2023/05/31 02:43:30;;;;;;;14.90;4.82;;;;;;;14.71;63.36;98940.88;4845187;29;20052;-76
2023/05/31 02:46:01;;;;;;;5.63;4.00;;;;;;;14.71;63.22;98940.88;4829048;29;20058;-77
2023/05/31 02:48:29;;;;;;;9.15;4.55;;;;;;;14.70;63.11;98962.47;4826563;29;20052;-74
2023/05/31 02:50:57;;;;;;;8.18;4.20;;;;;;;14.68;63.17;98949.22;4823291;29;20057;-77
2023/05/31 02:54:15;;;;;;;5.65;4.15;;;;;;;14.69;62.96;98958.97;4789324;29;20227;-77
2023/05/31 02:56:40;;;;;;;6.95;4.15;;;;;;;14.69;62.96;98955.44;4787113;29;20051;-70
2023/05/31 02:59:25;;;;;;;5.72;3.80;;;;;;;14.70;62.75;98959.81;4787287;29;20050;-72
2023/05/31 03:01:57;;;;;;;13.23;4.80;;;;;;;14.70;63.06;98963.31;4786150;29;20753;-66
2023/05/31 03:04:44;;;;;;;9.25;4.88;;;;;;;14.72;62.76;98961.34;4785011;29;20446;-64
2023/05/31 03:07:12;;;;;;;6.53;4.22;;;;;;;14.70;62.76;98968.69;4786165;29;20054;-66
2023/05/31 03:09:39;;;;;;;7.80;4.50;;;;;;;14.72;62.82;98965.88;4786073;29;20081;-67
2023/05/31 03:12:07;;;;;;;6.00;3.63;;;;;;;14.75;62.65;98954.84;4786029;29;20050;-67
2023/05/31 03:14:33;;;;;;;10.88;4.45;;;;;;;14.83;62.75;98963.81;4785728;29;20050;-67
2023/05/31 03:17:04;;;;;;;7.63;3.67;;;;;;;14.90;62.50;98972.91;4783514;29;20425;-69
2023/05/31 03:19:30;;;;;;;8.65;4.22;;;;;;;14.99;62.26;98973.00;4786180;29;20418;-71
2023/05/31 03:21:56;;;;;;;5.90;3.70;;;;;;;15.06;62.43;98974.91;4752653;29;20074;-71
2023/05/31 03:24:29;;;;;;;6.43;3.75;;;;;;;15.19;61.99;98996.00;4752115;29;20062;-71
2023/05/31 03:26:58;;;;;;;7.97;4.35;;;;;;;15.34;62.12;98977.50;4752816;29;20065;-70
2023/05/31 03:29:28;;;;;;;6.57;3.70;;;;;;;15.43;61.34;98993.53;4752995;29;20062;-71
2023/05/31 03:32:01;;;;;;;6.07;3.40;;;;;;;15.49;61.38;98955.28;4789120;29;20057;-70
2023/05/31 03:34:30;;;;;;;8.88;3.53;;;;;;;15.55;61.40;98976.19;4788901;29;20087;-71
2023/05/31 03:37:02;;;;;;;3.92;3.33;;;;;;;15.49;60.75;98992.88;4773315;29;20057;-72
2023/05/31 03:39:43;;;;;;;5.70;3.38;;;;;;;15.48;61.33;98974.22;4773878;29;20144;-71
2023/05/31 03:42:21;;;;;;;5.65;3.50;;;;;;;15.38;61.39;98966.28;4788576;29;20085;-72
2023/05/31 03:44:50;;;;;;;6.03;3.65;;;;;;;15.25;62.01;98968.53;4789409;29;20049;-71
2023/05/31 03:47:17;;;;;;;6.85;3.10;;;;;;;15.08;62.17;98966.72;4803749;29;20053;-71
2023/05/31 03:49:43;;;;;;;6.65;3.40;;;;;;;14.89;62.38;98982.00;4788753;29;20058;-71
2023/05/31 03:52:16;;;;;;;5.70;4.05;;;;;;;14.69;63.51;98976.88;4792318;29;20056;-69
2023/05/31 03:55:08;;;;;;;4.35;3.38;;;;;;;14.57;65.12;98991.50;4826824;29;20049;-71
2023/05/31 03:57:36;;;;;;;5.38;3.97;;;;;;;14.24;65.38;98982.22;4811585;29;20052;-70
2023/05/31 04:00:02;;;;;;;4.93;3.45;;;;;;;14.08;66.26;98973.00;4827502;29;20042;-72
2023/05/31 04:02:30;;;;;;;4.93;4.28;;;;;;;13.99;67.02;98962.31;4842052;29;20045;-69
2023/05/31 04:05:22;;;;;;;5.70;3.80;;;;;;;14.04;68.94;98960.03;4818117;29;20061;-70
2023/05/31 04:07:48;;;;;;;5.82;3.70;;;;;;;13.85;68.87;98960.97;4827398;29;20061;-71
2023/05/31 04:10:14;;;;;;;4.15;3.40;;;;;;;13.81;69.32;98963.06;4828492;29;20049;-71
2023/05/31 04:12:42;;;;;;;6.20;4.03;;;;;;;13.76;69.87;98961.84;4811284;29;20761;-71
2023/05/31 04:15:07;;;;;;;4.53;3.33;;;;;;;13.77;69.57;98960.81;4826671;29;20069;-71
2023/05/31 04:17:35;;;;;;;4.70;3.90;;;;;;;13.76;70.19;98977.91;4826482;29;20056;-71
2023/05/31 04:20:07;;;;;;;7.70;4.03;;;;;;;13.87;70.32;98947.41;4827946;29;20052;-70
2023/05/31 04:22:35;;;;;;;8.65;4.82;;;;;;;13.94;70.72;98962.75;4826696;29;20061;-72
2023/05/31 04:25:02;;;;;;;7.43;4.20;;;;;;;14.03;70.24;98969.91;4826318;29;20070;-70
2023/05/31 04:27:38;;;;;;;6.63;3.65;;;;;;;14.05;70.08;98969.75;4826565;29;20121;-71
2023/05/31 04:30:07;;;;;;;5.72;4.60;;;;;;;14.02;69.97;98973.56;4810472;29;20070;-71
2023/05/31 04:32:36;;;;;;;6.82;4.38;;;;;;;13.96;70.13;98968.81;4826091;29;20049;-71
2023/05/31 04:35:05;;;;;;;7.28;4.20;;;;;;;13.88;70.36;98979.44;4826638;29;20049;-70
2023/05/31 04:37:39;;;;;;;6.65;4.00;;;;;;;13.80;70.64;98984.66;4825725;29;20061;-71
2023/05/31 04:40:31;;;;;;;6.45;3.90;;;;;;;13.69;70.04;98974.97;4830509;29;20066;-71
2023/05/31 04:43:03;;;;;;;4.65;3.80;;;;;;;13.62;70.61;98970.34;4826566;29;20057;-71
2023/05/31 04:45:32;;;;;;;5.90;4.15;;;;;;;13.56;70.83;98971.75;4827709;29;20049;-71
2023/05/31 04:48:22;;;;;;;7.05;4.00;;;;;;;13.52;70.95;98965.00;4832661;29;20052;-71
2023/05/31 04:50:49;;;;;;;6.72;3.92;;;;;;;13.47;71.12;98993.19;4827738;29;20057;-71
2023/05/31 04:53:16;;;;;;;4.45;3.78;;;;;;;13.42;71.01;98981.09;4827531;29;20050;-71
2023/05/31 04:55:41;;;;;;;5.45;4.47;;;;;;;13.38;71.54;98984.19;4826401;29;20057;-71
2023/05/31 05:01:28;;;;;;;4.43;4.03;;;;;;;13.41;71.52;98965.19;4841830;29;20064;-72
2023/05/31 05:04:04;;;;;;;6.00;4.45;;;;;;;13.39;71.80;98981.38;4810666;29;20053;-70
2023/05/31 05:06:37;;;;;;;8.45;5.88;;;;;;;13.35;71.85;99001.38;4825306;29;20049;-72
2023/05/31 05:09:03;;;;;;;8.05;6.72;;;;;;;13.34;71.98;98956.00;4827429;29;20061;-71
2023/05/31 05:11:36;;;;;;;8.80;6.20;;;;;;;13.36;71.79;98986.16;4824506;29;20060;-71
2023/05/31 05:14:03;;;;;;;5.97;4.55;;;;;;;13.34;72.25;98980.94;4826272;29;20049;-73
2023/05/31 05:16:31;;;;;;;8.40;3.90;;;;;;;13.35;72.35;98981.78;4825726;29;20060;-71
2023/05/31 05:19:03;;;;;;;4.20;3.67;;;;;;;13.34;71.88;98988.13;4825947;29;20060;-71
2023/05/31 05:21:32;;;;;;;5.88;4.00;;;;;;;13.33;71.91;98998.00;4807725;29;20053;-71
2023/05/31 05:23:57;;;;;;;4.85;3.50;;;;;;;13.28;72.10;98999.44;4792002;29;20058;-71
2023/05/31 05:26:28;;;;;;;4.53;3.72;;;;;;;13.24;72.15;99001.53;4806935;29;20045;-70
2023/05/31 05:29:20;;;;;;;4.03;3.30;;;;;;;13.21;72.29;98988.44;4807348;29;20062;-72
2023/05/31 05:31:47;;;;;;;6.68;4.13;;;;;;;13.15;72.80;98988.16;4840588;29;20199;-70
2023/05/31 05:34:13;;;;;;;4.82;3.28;;;;;;;13.07;73.12;98980.81;4826030;29;20056;-73
2023/05/31 05:36:40;;;;;;;6.60;3.85;;;;;;;12.98;73.69;98973.66;4824856;29;20073;-72
2023/05/31 05:39:07;;;;;;;7.95;3.97;;;;;;;12.93;73.85;99000.81;4825243;29;20049;-73
2023/05/31 05:41:35;;;;;;;5.22;3.80;;;;;;;12.91;75.01;98969.81;4825411;29;20057;-72
2023/05/31 05:44:05;;;;;;;9.23;4.10;;;;;;;12.87;75.29;98961.22;4840203;29;20045;-71
2023/05/31 05:46:57;;;;;;;8.25;3.78;;;;;;;12.84;75.42;98955.34;4807891;29;20065;-70
2023/05/31 05:49:30;;;;;;;9.45;4.05;;;;;;;12.84;76.03;98932.09;4810630;29;20053;-71
2023/05/31 05:52:22;;;;;;;6.25;4.20;;;;;;;12.78;75.96;98931.81;4807472;29;20050;-72
2023/05/31 05:54:55;;;;;;;6.07;4.05;;;;;;;12.71;76.32;98927.03;4820894;29;20053;-71
2023/05/31 05:57:25;;;;;;;8.43;4.30;;;;;;;12.62;76.50;98938.56;4806098;29;20065;-73
2023/05/31 05:59:59;;;;;;;15.30;4.20;;;;;;;12.60;77.51;98948.56;4821665;29;20050;-71
2023/05/31 06:02:42;;;;;;;6.88;4.68;;;;;;;12.57;77.17;98967.53;4821215;29;20060;-72
2023/05/31 06:05:34;;;;;;;8.25;5.20;;;;;;;12.68;78.16;98937.16;4806104;29;20053;-72
2023/05/31 06:08:02;;;;;;;7.07;4.65;;;;;;;12.55;77.77;98945.44;4821588;29;20046;-71
2023/05/31 06:10:57;;;;;;;5.97;3.83;;;;;;;12.62;78.24;98938.56;4805953;29;20080;-69
2023/05/31 06:13:26;;;;;;;;;;;;;;;12.69;78.06;98950.38;4824755;29;20060;-69
2023/05/31 06:15:55;;;;;;;4.97;3.80;;;;;;;12.58;77.75;98947.00;4824191;29;19927;-69
2023/05/31 06:18:21;;;;;;;7.20;5.03;;;;;;;12.53;77.83;98939.38;4808040;29;20049;-71
2023/05/31 06:20:47;;;;;;;6.13;4.65;;;;;;;12.52;78.64;98951.09;4824213;29;20045;-71
2023/05/31 06:23:18;;;;;;;6.85;4.38;;;;;;;12.56;78.38;98932.91;4823922;29;20615;-69
2023/05/31 06:25:47;;;;;;;5.75;4.22;;;;;;;12.60;78.92;98945.88;4839555;29;20049;-70
2023/05/31 06:28:16;;;;;;;14.10;8.60;;;;;;;12.62;79.04;98922.53;4808449;29;20058;-70
2023/05/31 06:31:09;;;;;;;7.50;5.18;;;;;;;12.75;79.54;98922.25;4824139;29;20049;-70
2023/05/31 06:33:38;;;;;;;10.18;5.55;;;;;;;12.65;79.42;98911.53;4825295;29;20049;-70
2023/05/31 06:36:04;;;;;;;6.45;4.55;;;;;;;12.63;79.23;98924.22;4823095;29;20061;-70
2023/05/31 06:38:30;;;;;;;6.68;4.45;;;;;;;12.64;79.78;98914.38;4823714;29;20056;-70
2023/05/31 06:41:22;;;;;;;6.68;4.85;;;;;;;12.75;79.75;98927.59;4823664;29;20053;-70
2023/05/31 06:43:52;;;;;;;;;;;;;;;12.83;80.18;98924.22;4824008;29;20056;-70
2023/05/31 06:46:40;;;;;;;6.05;4.88;;;;;;;12.68;79.74;98919.28;4836295;29;19920;-70
2023/05/31 06:49:33;;;;;;;5.63;3.92;;;;;;;12.67;79.66;98920.25;4822756;29;20075;-71
2023/05/31 06:52:22;;;;;;;9.63;4.13;;;;;;;12.66;79.47;98923.91;4821053;29;20057;-70
2023/05/31 06:55:48;;;;;;;6.00;4.03;;;;;;;12.64;79.39;98935.75;4828164;29;20057;-70
2023/05/31 06:58:18;;;;;;;6.40;4.13;;;;;;;12.62;79.22;98911.84;4823183;29;20056;-69
2023/05/31 07:00:50;;;;;;;4.55;3.25;;;;;;;12.59;79.17;98938.00;4823365;29;20497;-70
2023/05/31 07:03:15;;;;;;;5.38;3.55;;;;;;;12.58;79.29;98926.47;4823331;29;20073;-70
2023/05/31 07:05:47;;;;;;;4.85;3.53;;;;;;;12.55;79.32;98916.03;4823017;29;20064;-71
2023/05/31 07:08:18;;;;;;;7.32;4.45;;;;;;;12.62;79.65;98911.00;4838710;29;20500;-71
2023/05/31 07:11:13;;;;;;;5.13;3.58;;;;;;;12.57;79.39;98907.88;4819377;29;20057;-70
2023/05/31 07:13:39;;;;;;;5.32;3.58;;;;;;;12.56;79.71;98920.41;4807429;29;20065;-70
2023/05/31 07:16:04;;;;;;;6.65;3.42;;;;;;;12.55;79.64;98907.16;4813169;29;20057;-70
2023/05/31 07:18:33;;;;;;;6.65;3.60;;;;;;;12.60;80.04;98911.13;4820239;29;20100;-71
2023/05/31 07:21:02;;;;;;;5.43;3.50;;;;;;;12.67;79.88;98908.72;4820081;29;20063;-70
2023/05/31 07:23:27;;;;;;;5.10;3.35;;;;;;;12.75;79.65;98906.22;4820878;29;20385;-70
2023/05/31 07:26:00;;;;;;;7.95;3.50;;;;;;;12.88;79.56;98906.75;4824058;29;20046;-71
2023/05/31 07:28:55;;;;;;;5.57;2.92;;;;;;;13.17;79.25;98916.63;4818450;29;20065;-71
2023/05/31 07:31:45;;;;;;;4.13;2.85;;;;;;;13.29;79.08;98900.25;4809020;29;20079;-71
2023/05/31 07:34:12;;;;;;;2.92;2.53;;;;;;;13.41;78.58;98906.28;4824358;29;20049;-70
2023/05/31 07:36:39;;;;;;;4.07;3.00;;;;;;;13.51;77.91;98925.81;4821301;29;20540;-71
2023/05/31 07:39:05;;;;;;;6.00;3.40;;;;;;;13.62;77.60;98900.69;4823933;29;20049;-72
2023/05/31 07:41:37;;;;;;;3.75;3.03;;;;;;;13.77;77.03;98904.56;4838178;29;20049;-71
2023/05/31 07:44:05;;;;;;;4.85;2.95;;;;;;;13.79;76.58;98903.44;4822698;29;20058;-69
2023/05/31 07:46:57;;;;;;;4.97;3.47;;;;;;;13.83;76.09;98909.34;4823899;29;20516;-70
2023/05/31 07:49:26;;;;;;;3.40;2.88;;;;;;;13.81;75.89;98900.59;4822862;29;20053;-70
2023/05/31 07:51:53;;;;;;;4.25;3.13;;;;;;;13.78;75.17;98922.31;4822772;29;20053;-71
2023/05/31 07:54:43;;;;;;;3.92;2.70;;;;;;;13.77;74.99;98920.63;4823868;29;20045;-71
2023/05/31 07:57:09;;;;;;;4.07;2.28;;;;;;;13.73;74.86;98909.41;4824060;29;20053;-70
2023/05/31 07:59:34;;;;;;;2.83;2.47;;;;;;;13.71;74.65;98899.81;4822396;29;20076;-70
2023/05/31 08:01:59;;;;;;;2.92;2.60;;;;;;;13.70;74.70;98903.47;4822786;29;20050;-70
2023/05/31 08:04:25;;;;;;;4.63;3.30;;;;;;;13.68;75.05;98900.09;4823663;29;20045;-70
2023/05/31 08:09:44;;;;;;;4.95;3.50;;;;;;;13.63;74.58;98897.03;4823860;29;20057;-70
2023/05/31 08:12:10;;;;;;;4.43;2.85;;;;;;;13.54;74.69;98900.59;4823746;29;20041;-70
2023/05/31 08:14:42;;;;;;;5.07;3.00;;;;;;;13.47;74.79;98886.09;4823913;29;20057;-70
2023/05/31 08:17:10;;;;;;;4.65;3.50;;;;;;;13.40;75.08;98912.63;4823829;29;20048;-71
2023/05/31 08:19:36;;;;;;;4.20;3.28;;;;;;;13.34;74.99;98908.66;4823518;29;20045;-71
2023/05/31 08:22:01;;;;;;;5.05;2.95;;;;;;;13.30;75.22;98903.75;4823559;29;20056;-69
2023/05/31 08:24:28;;;;;;;4.25;2.72;;;;;;;13.27;75.24;98923.63;4807323;29;20556;-70
2023/05/31 08:26:55;;;;;;;5.63;3.20;;;;;;;13.21;75.87;98913.47;4823971;29;20053;-69
2023/05/31 08:29:22;;;;;;;7.90;3.95;;;;;;;13.14;75.37;98933.78;4822421;29;20543;-70
2023/05/31 08:32:14;;;;;;;9.75;3.38;;;;;;;13.15;75.70;98919.44;4823497;29;20053;-70
2023/05/31 08:35:12;;;;;;;9.18;3.80;;;;;;;12.87;75.11;98925.59;4805962;29;20489;-70
2023/05/31 08:37:45;;;;;;;3.47;3.05;;;;;;;12.71;75.59;98923.50;4803626;29;20431;-71
2023/05/31 08:40:39;;;;;;;6.22;3.53;;;;;;;12.56;75.96;98923.06;4821292;29;20072;-71
2023/05/31 08:43:15;;;;;;;8.57;3.40;;;;;;;12.44;76.15;98940.22;4825636;29;20053;-70
2023/05/31 08:45:44;;;;;;;6.10;3.85;;;;;;;12.30;76.16;98937.97;4826500;29;20072;-69
2023/05/31 08:48:20;;;;;;;3.95;3.05;;;;;;;12.23;76.67;98936.81;4826538;29;20053;-71
2023/05/31 08:51:14;;;;;;;8.45;3.80;;;;;;;12.18;76.97;98939.91;4826732;29;20055;-69
2023/05/31 08:53:43;;;;;;;4.22;3.17;;;;;;;12.01;77.24;98903.16;4825309;29;20049;-70
2023/05/31 08:56:35;;;;;;;4.20;3.47;;;;;;;12.08;77.53;98948.84;4840902;29;20060;-72
2023/05/31 08:59:04;;;;;;;4.93;3.50;;;;;;;11.93;77.05;98951.06;4825238;29;20045;-71
2023/05/31 09:02:45;;;;;;;5.28;3.88;;;;;;;12.06;77.48;98940.16;4837728;29;20045;-71
2023/05/31 09:05:11;;;;;;;7.20;3.72;;;;;;;11.93;77.25;98935.91;4826392;29;20072;-71
2023/05/31 09:07:42;;;;;;;7.45;4.05;;;;;;;11.97;77.52;98937.28;4824846;29;20054;-70
2023/05/31 09:10:14;;;;;;;4.68;3.15;;;;;;;12.05;77.13;98960.69;4826390;29;20042;-71
2023/05/31 09:12:43;;;;;;;5.68;3.25;;;;;;;12.08;76.64;98933.66;4824644;29;20152;-72
2023/05/31 09:15:14;;;;;;;7.05;3.20;;;;;;;12.06;76.60;98932.13;4826311;29;20049;-71
2023/05/31 09:17:47;;;;;;;3.60;3.30;;;;;;;12.06;76.85;98948.16;4821389;29;20049;-71
2023/05/31 09:20:14;;;;;;;5.40;3.50;;;;;;;11.99;76.43;98935.34;4807944;29;20046;-72
2023/05/31 09:22:44;;;;;;;4.82;2.97;;;;;;;11.99;76.13;98931.81;4806574;29;20523;-71
2023/05/31 09:25:09;;;;;;;3.95;2.83;;;;;;;11.98;75.73;98944.31;4820616;29;20049;-70
2023/05/31 09:27:40;;;;;;;4.30;3.20;;;;;;;11.98;76.16;98949.69;4824766;29;20382;-71
2023/05/31 09:30:55;;;;;;;4.95;3.10;;;;;;;12.10;76.43;98939.72;4840331;29;20056;-71
2023/05/31 09:33:20;;;;;;;6.70;3.90;;;;;;;11.98;76.58;98944.31;4825829;29;20044;-70
2023/05/31 09:36:04;;;;;;;5.35;3.92;;;;;;;12.08;75.91;98946.19;4825026;29;20421;-71
2023/05/31 09:38:35;;;;;;;8.35;4.63;;;;;;;11.96;76.10;98951.63;4840059;29;20060;-71
2023/05/31 09:41:22;;;;;;;5.65;4.00;;;;;;;12.05;76.18;98954.50;4824427;29;20065;-70
2023/05/31 09:43:49;;;;;;;4.80;3.30;;;;;;;11.87;75.57;98955.13;4824288;29;20057;-71
2023/05/31 09:46:22;;;;;;;6.93;3.55;;;;;;;11.87;76.29;98960.47;4839927;29;20049;-71
2023/05/31 09:48:59;;;;;;;4.60;3.40;;;;;;;11.87;76.22;98973.81;4825564;29;20398;-71
2023/05/31 09:51:28;;;;;;;5.07;3.67;;;;;;;11.74;76.29;98951.78;4820207;29;20057;-72
2023/05/31 09:53:55;;;;;;;5.43;3.45;;;;;;;11.69;76.52;98958.53;4805983;29;20069;-71
2023/05/31 09:56:22;;;;;;;4.43;3.13;;;;;;;11.63;76.56;98965.22;4806110;29;20061;-72
2023/05/31 09:58:49;;;;;;;5.72;3.90;;;;;;;11.59;76.42;98969.16;4806351;29;20050;-71
2023/05/31 10:01:16;;;;;;;5.60;3.30;;;;;;;11.54;76.51;98966.88;4821039;29;20694;-70
2023/05/31 10:03:47;;;;;;;7.43;3.72;;;;;;;11.48;76.71;98970.09;4817667;29;20049;-71
2023/05/31 10:06:37;;;;;;;6.95;3.50;;;;;;;11.43;76.87;98968.78;4826433;29;20053;-72
2023/05/31 10:09:32;;;;;;;7.50;3.67;;;;;;;11.49;77.98;98984.28;4819454;29;20397;-71
2023/05/31 10:12:02;;;;;;;3.63;3.05;;;;;;;11.33;78.07;98990.06;4808893;29;20072;-72
2023/05/31 10:14:55;;;;;;;5.18;3.33;;;;;;;11.36;78.17;98989.81;4809744;29;20045;-72
2023/05/31 10:17:23;;;;;;;5.95;3.40;;;;;;;11.18;77.96;98991.34;4807690;29;20033;-72
2023/05/31 10:19:57;;;;;;;4.55;2.92;;;;;;;11.13;78.55;99004.25;4807419;29;20413;-71
2023/05/31 10:22:32;;;;;;;4.57;3.25;;;;;;;11.03;78.21;99004.16;4807003;29;20046;-71
2023/05/31 10:25:09;;;;;;;7.93;2.58;;;;;;;10.97;78.65;99012.66;4807305;29;20692;-71
2023/05/31 10:27:39;;;;;;;5.75;3.40;;;;;;;10.88;79.21;99016.09;4821035;29;20053;-70
2023/05/31 10:30:12;;;;;;;5.70;3.58;;;;;;;10.86;79.37;99018.91;4812802;29;20061;-71
2023/05/31 10:32:43;;;;;;;5.03;3.17;;;;;;;10.82;79.34;99021.97;4822614;29;20057;-71
2023/05/31 10:35:11;;;;;;;3.90;3.20;;;;;;;10.73;79.37;99022.69;4824179;29;20075;-71
2023/05/31 10:38:04;;;;;;;7.88;3.50;;;;;;;10.68;79.08;99019.56;4817541;29;20725;-71
2023/05/31 10:40:29;;;;;;;7.30;3.40;;;;;;;10.66;79.21;99021.50;4806564;29;20449;-71
2023/05/31 10:43:06;;;;;;;5.13;3.35;;;;;;;10.65;79.87;99026.00;4806334;29;20056;-71
2023/05/31 10:45:41;;;;;;;5.70;3.90;;;;;;;10.66;79.74;99043.69;4820796;29;20050;-71
2023/05/31 10:48:16;;;;;;;4.93;3.35;;;;;;;10.61;80.09;99039.72;4806966;29;20057;-71
2023/05/31 10:51:01;;;;;;;6.22;3.60;;;;;;;10.62;80.33;99036.91;4804940;29;20050;-70
2023/05/31 10:53:54;;;;;;;7.13;3.33;;;;;;;10.50;80.17;99037.88;4806006;29;20501;-69
2023/05/31 10:56:22;;;;;;;5.15;3.65;;;;;;;10.45;79.88;99035.59;4808101;29;20049;-70
2023/05/31 10:59:18;;;;;;;4.32;3.30;;;;;;;10.45;80.21;99040.94;4813368;29;20498;-71
2023/05/31 11:02:09;;;;;;;5.78;3.80;;;;;;;10.51;80.08;99040.44;4825296;29;20080;-71
2023/05/31 11:04:36;;;;;;;11.98;3.85;;;;;;;10.38;80.25;99050.41;4823885;29;20099;-72
2023/05/31 11:07:12;;;;;;;9.07;3.88;;;;;;;10.46;80.79;99039.13;4822191;29;20429;-71
2023/05/31 11:09:43;;;;;;;4.82;3.58;;;;;;;10.41;80.26;99038.63;4819383;29;20057;-70
2023/05/31 11:12:36;;;;;;;6.88;3.85;;;;;;;10.60;81.07;99044.19;4822587;29;20057;-72
2023/05/31 11:15:05;;;;;;;6.53;4.00;;;;;;;10.61;80.57;99029.88;4808983;29;20050;-72
2023/05/31 11:17:52;;;;;;;8.77;4.60;;;;;;;10.84;81.06;99035.97;4822991;29;20049;-70
2023/05/31 11:21:32;;;;;;;6.30;4.03;;;;;;;10.99;81.18;99024.06;4823996;29;20413;-71
2023/05/31 11:24:33;;;;;;;4.30;3.50;;;;;;;11.32;79.86;99022.22;4835220;29;20064;-73
2023/05/31 11:29:57;;;;;;;6.80;3.78;;;;;;;11.77;78.54;99021.00;4805636;29;20054;-73
2023/05/31 11:32:34;;;;;;;4.80;3.58;;;;;;;12.15;77.68;99020.34;4808040;29;20044;-72
2023/05/31 11:35:26;;;;;;;7.72;4.38;;;;;;;12.33;76.35;99028.53;4820467;29;20072;-71
2023/05/31 11:38:17;;;;;;;6.57;3.55;;;;;;;12.60;75.29;99015.41;4807081;29;20073;-71
2023/05/31 11:40:42;;;;;;;5.80;3.97;;;;;;;12.56;74.95;99027.34;4818097;29;20406;-71
2023/05/31 11:43:08;;;;;;;4.57;3.50;;;;;;;12.60;74.32;99015.41;4811671;29;20501;-72
2023/05/31 11:45:40;;;;;;;4.55;3.10;;;;;;;12.66;73.17;99025.53;4811609;29;20062;-71
2023/05/31 11:48:18;;;;;;;4.28;3.00;;;;;;;12.61;72.71;99022.44;4808568;29;20382;-71
2023/05/31 11:50:53;;;;;;;5.63;3.70;;;;;;;12.49;72.06;99038.75;4822992;29;20136;-71
2023/05/31 11:53:21;;;;;;;14.85;4.03;;;;;;;12.38;71.46;99034.34;4804618;29;20053;-71
2023/05/31 11:55:52;;;;;;;7.93;3.30;;;;;;;12.28;71.87;99037.00;4806934;29;20053;-71
2023/05/31 11:58:26;;;;;;;6.15;3.40;;;;;;;12.14;71.56;99033.84;4812909;29;20056;-68
2023/05/31 12:00:58;;;;;;;7.85;3.35;;;;;;;12.07;71.73;99035.34;4823594;29;20049;-70
2023/05/31 12:03:25;;;;;;;4.70;3.63;;;;;;;11.95;71.67;99029.25;4820176;29;20061;-71
2023/05/31 12:05:57;;;;;;;6.43;3.63;;;;;;;11.97;72.51;99030.78;4823009;29;20909;-72
2023/05/31 12:11:14;;;;;;;5.80;3.10;;;;;;;11.98;72.68;99045.00;4812460;29;20053;-75
2023/05/31 12:14:04;;;;;;;3.97;3.10;;;;;;;12.16;72.78;99031.88;4824241;29;20409;-74
2023/05/31 12:16:30;;;;;;;6.40;3.00;;;;;;;12.11;72.25;99034.94;4811213;29;20050;-76
2023/05/31 12:19:03;;;;;;;5.05;3.25;;;;;;;12.22;71.93;99032.16;4813395;29;20060;-74
2023/05/31 12:21:31;;;;;;;6.35;2.85;;;;;;;12.39;71.78;99028.03;4822935;29;20042;-75